Taiping Airport
ZYHB : now visible

Airfield :











YOU CAN JOIN US ON...

 
LOGIN :

Register | Disclaimer

   EN    FR    IT 

 









Legend :    VFR   Marginal VFR   IFR   Intensive IFR   Very Intensive IFR
Visi :
Ceiling :
>= 8 km
>= 3000ft
5 to 8 km
1000 to 3000 ft
1500m to 5 km
500 to 1000 ft
800 to 1500m
200 to 500 ft
< 800m
< 200 ft
Symbols :   Thunderstorms  Fog  Heavy snow  Heavy precipitations  Wind > 20 kt






- Airport Elevation : 457 ft
- IATA code : HRB


ZYHB - Taiping

CURRENT METAR :
  • 222200Z 34007MPS 9999 OVC020 01/M07 Q1018 NOSIG

EXPIRED METARs :
  • 222100Z 23006MPS 6000 OVC040 07/04 Q1016 BECMG TL2230 30006MPS
  • 222000Z 22007MPS 6000 OVC030 08/05 Q1015 BECMG TL2130 30006MPS

TAF TAF ZYHB
Valid from the 22 at 18:00 until the 23 at 18:00 UTC


221508Z 2218/2318 20008G16MPS 6000 BKN020 TX04/2219Z TNM09/17Z
TEMPO 2218/2224 2000 -RASN
BECMG 2220/2221 30006G12MPS



MET'MAP, your aeronautical weather chart ! - Copyright ORBIFLY December 2007 - Disclaimer

ORBIFLY MET'MAP TEAM :

Programming & Development : Alexandra Zaïnal
Concept & Development : Baudouin d'Aumeries
Co-Development & Prog : Marc-Olivier Méhu
Technical & hardware support : Manuel Goepfert

Contact : metmap@orbifly.com




SOURCES & CREDITS :

   NOAA       Earth
Advisory